sensor_id;sensor_type;location;lat;lon;timestamp;pressure;altitude;pressure_sealevel;temperature;humidity
56912;BME280;42800;53.928;27.662;2024-01-30T00:02:09;100956.31;;;0.60;100.00
56912;BME280;42800;53.928;27.662;2024-01-30T00:04:36;100981.22;;;0.45;100.00
56912;BME280;42800;53.928;27.662;2024-01-30T00:07:02;101006.13;;;0.53;100.00
56912;BME280;42800;53.928;27.662;2024-01-30T00:09:28;101041.09;;;0.42;100.00
56912;BME280;42800;53.928;27.662;2024-01-30T00:11:54;101044.03;;;0.63;100.00
56912;BME280;42800;53.928;27.662;2024-01-30T00:14:21;101059.97;;;0.42;100.00
56912;BME280;42800;53.928;27.662;2024-01-30T00:16:47;101077.81;;;0.65;100.00
56912;BME280;42800;53.928;27.662;2024-01-30T00:19:13;101017.00;;;0.85;100.00
56912;BME280;42800;53.928;27.662;2024-01-30T00:21:39;101006.47;;;0.34;100.00
56912;BME280;42800;53.928;27.662;2024-01-30T00:24:06;101026.75;;;0.37;100.00
56912;BME280;42800;53.928;27.662;2024-01-30T00:26:32;101079.19;;;0.46;100.00
56912;BME280;42800;53.928;27.662;2024-01-30T00:28:58;101066.84;;;0.50;100.00
56912;BME280;42800;53.928;27.662;2024-01-30T00:31:24;101088.41;;;0.72;100.00
56912;BME280;42800;53.928;27.662;2024-01-30T00:33:51;101078.31;;;0.62;100.00
56912;BME280;42800;53.928;27.662;2024-01-30T00:36:17;101050.88;;;0.49;100.00
56912;BME280;42800;53.928;27.662;2024-01-30T00:38:44;101103.06;;;0.54;100.00
56912;BME280;42800;53.928;27.662;2024-01-30T00:41:10;101074.94;;;0.50;100.00
56912;BME280;42800;53.928;27.662;2024-01-30T00:43:36;101068.69;;;0.50;100.00
56912;BME280;42800;53.928;27.662;2024-01-30T00:46:02;101078.06;;;0.42;100.00
56912;BME280;42800;53.928;27.662;2024-01-30T00:48:29;101104.06;;;0.70;100.00
56912;BME280;42800;53.928;27.662;2024-01-30T00:50:55;101057.59;;;0.68;100.00
56912;BME280;42800;53.928;27.662;2024-01-30T00:53:21;101057.41;;;0.75;100.00
56912;BME280;42800;53.928;27.662;2024-01-30T00:55:48;101041.91;;;0.92;100.00
56912;BME280;42800;53.928;27.662;2024-01-30T00:58:14;101004.59;;;0.57;100.00
56912;BME280;42800;53.928;27.662;2024-01-30T01:00:40;101010.50;;;0.81;100.00
56912;BME280;42800;53.928;27.662;2024-01-30T01:03:06;101001.69;;;0.41;100.00
56912;BME280;42800;53.928;27.662;2024-01-30T01:05:32;101028.22;;;0.50;100.00
56912;BME280;42800;53.928;27.662;2024-01-30T01:07:58;101028.22;;;0.50;100.00
56912;BME280;42800;53.928;27.662;2024-01-30T01:10:24;101091.06;;;0.06;100.00
56912;BME280;42800;53.928;27.662;2024-01-30T01:12:51;101152.66;;;0.31;100.00
56912;BME280;42800;53.928;27.662;2024-01-30T01:15:17;101169.41;;;0.16;100.00
56912;BME280;42800;53.928;27.662;2024-01-30T01:17:43;101189.38;;;0.15;100.00
56912;BME280;42800;53.928;27.662;2024-01-30T01:20:10;101192.03;;;0.49;100.00
56912;BME280;42800;53.928;27.662;2024-01-30T01:22:36;101178.34;;;0.00;100.00
56912;BME280;42800;53.928;27.662;2024-01-30T01:25:04;101203.34;;;0.29;100.00
56912;BME280;42800;53.928;27.662;2024-01-30T01:27:32;101192.50;;;-0.10;100.00
56912;BME280;42800;53.928;27.662;2024-01-30T01:30:00;101208.91;;;0.22;100.00
56912;BME280;42800;53.928;27.662;2024-01-30T01:32:26;101204.00;;;0.19;100.00
56912;BME280;42800;53.928;27.662;2024-01-30T01:34:52;101194.28;;;0.02;100.00
56912;BME280;42800;53.928;27.662;2024-01-30T01:37:19;101198.69;;;-0.09;100.00
56912;BME280;42800;53.928;27.662;2024-01-30T01:39:47;101209.19;;;-0.25;100.00
56912;BME280;42800;53.928;27.662;2024-01-30T01:42:13;101226.63;;;-0.44;100.00
56912;BME280;42800;53.928;27.662;2024-01-30T01:44:39;101244.81;;;-0.51;100.00
56912;BME280;42800;53.928;27.662;2024-01-30T01:47:06;101254.53;;;-0.50;100.00
56912;BME280;42800;53.928;27.662;2024-01-30T01:49:32;101263.47;;;-0.50;100.00
56912;BME280;42800;53.928;27.662;2024-01-30T01:51:59;101274.00;;;-0.48;100.00
56912;BME280;42800;53.928;27.662;2024-01-30T01:54:25;101262.00;;;-0.69;100.00
56912;BME280;42800;53.928;27.662;2024-01-30T01:56:52;101277.41;;;-0.53;100.00
56912;BME280;42800;53.928;27.662;2024-01-30T01:59:20;101283.28;;;-0.56;100.00
56912;BME280;42800;53.928;27.662;2024-01-30T02:01:47;101276.22;;;-0.45;100.00
56912;BME280;42800;53.928;27.662;2024-01-30T02:04:15;101274.25;;;-0.50;100.00
56912;BME280;42800;53.928;27.662;2024-01-30T02:06:42;101265.25;;;-0.67;100.00
56912;BME280;42800;53.928;27.662;2024-01-30T02:09:09;101260.19;;;-0.52;100.00
56912;BME280;42800;53.928;27.662;2024-01-30T02:11:35;101264.78;;;-0.64;100.00
56912;BME280;42800;53.928;27.662;2024-01-30T02:14:02;101262.94;;;-0.35;100.00
56912;BME280;42800;53.928;27.662;2024-01-30T02:16:29;101261.91;;;-0.45;100.00
56912;BME280;42800;53.928;27.662;2024-01-30T02:18:55;101250.28;;;-0.75;100.00
56912;BME280;42800;53.928;27.662;2024-01-30T02:21:22;101260.72;;;-0.38;100.00
56912;BME280;42800;53.928;27.662;2024-01-30T02:23:48;101251.78;;;-0.67;100.00
56912;BME280;42800;53.928;27.662;2024-01-30T02:26:15;101249.41;;;-0.23;100.00
56912;BME280;42800;53.928;27.662;2024-01-30T02:28:41;101237.78;;;-0.24;100.00
56912;BME280;42800;53.928;27.662;2024-01-30T02:31:07;101235.44;;;-0.20;100.00
56912;BME280;42800;53.928;27.662;2024-01-30T02:33:33;101218.34;;;-0.26;100.00
56912;BME280;42800;53.928;27.662;2024-01-30T02:35:59;101220.91;;;-0.48;100.00
56912;BME280;42800;53.928;27.662;2024-01-30T02:38:26;101230.00;;;-0.37;100.00
56912;BME280;42800;53.928;27.662;2024-01-30T02:40:52;101221.13;;;-0.20;100.00
56912;BME280;42800;53.928;27.662;2024-01-30T02:43:18;101219.34;;;-0.15;100.00
56912;BME280;42800;53.928;27.662;2024-01-30T02:45:44;101208.88;;;-0.57;100.00
56912;BME280;42800;53.928;27.662;2024-01-30T02:48:10;101235.59;;;-0.27;100.00
56912;BME280;42800;53.928;27.662;2024-01-30T02:50:36;101222.63;;;-0.70;100.00
56912;BME280;42800;53.928;27.662;2024-01-30T02:53:03;101231.22;;;-0.44;100.00
56912;BME280;42800;53.928;27.662;2024-01-30T02:55:31;101236.69;;;-0.68;100.00
56912;BME280;42800;53.928;27.662;2024-01-30T02:57:57;101239.91;;;-0.54;100.00
56912;BME280;42800;53.928;27.662;2024-01-30T03:00:23;101229.47;;;-0.51;100.00
56912;BME280;42800;53.928;27.662;2024-01-30T03:02:50;101243.16;;;-0.69;100.00
56912;BME280;42800;53.928;27.662;2024-01-30T03:05:16;101243.97;;;-0.80;100.00
56912;BME280;42800;53.928;27.662;2024-01-30T03:07:42;101242.34;;;-0.69;100.00
56912;BME280;42800;53.928;27.662;2024-01-30T03:10:08;101240.13;;;-0.73;100.00
56912;BME280;42800;53.928;27.662;2024-01-30T03:12:35;101240.06;;;-0.61;100.00
56912;BME280;42800;53.928;27.662;2024-01-30T03:15:01;101252.72;;;-0.33;100.00
56912;BME280;42800;53.928;27.662;2024-01-30T03:17:27;101246.72;;;-0.23;100.00
56912;BME280;42800;53.928;27.662;2024-01-30T03:19:53;101226.94;;;-0.29;100.00
56912;BME280;42800;53.928;27.662;2024-01-30T03:22:19;101222.78;;;-0.48;100.00
56912;BME280;42800;53.928;27.662;2024-01-30T03:24:45;101227.06;;;-0.64;100.00
56912;BME280;42800;53.928;27.662;2024-01-30T03:27:11;101227.06;;;-0.35;100.00
56912;BME280;42800;53.928;27.662;2024-01-30T03:29:38;101226.59;;;-0.32;100.00
56912;BME280;42800;53.928;27.662;2024-01-30T03:32:05;101222.34;;;-0.28;100.00
56912;BME280;42800;53.928;27.662;2024-01-30T03:34:31;101210.81;;;-0.69;100.00
56912;BME280;42800;53.928;27.662;2024-01-30T03:36:57;101213.50;;;-0.40;100.00
56912;BME280;42800;53.928;27.662;2024-01-30T03:39:23;101210.31;;;-0.37;100.00
56912;BME280;42800;53.928;27.662;2024-01-30T03:41:49;101200.66;;;-0.50;100.00
56912;BME280;42800;53.928;27.662;2024-01-30T03:44:15;101197.09;;;-0.39;100.00
56912;BME280;42800;53.928;27.662;2024-01-30T03:46:42;101203.56;;;-0.68;100.00
56912;BME280;42800;53.928;27.662;2024-01-30T03:49:09;101216.28;;;-0.35;100.00
56912;BME280;42800;53.928;27.662;2024-01-30T03:51:35;101205.22;;;-0.22;100.00
56912;BME280;42800;53.928;27.662;2024-01-30T03:54:02;101190.03;;;-0.57;100.00
56912;BME280;42800;53.928;27.662;2024-01-30T03:56:28;101191.34;;;-0.59;100.00
56912;BME280;42800;53.928;27.662;2024-01-30T03:58:54;101194.13;;;-0.83;100.00
56912;BME280;42800;53.928;27.662;2024-01-30T04:01:21;101204.09;;;-0.95;100.00
56912;BME280;42800;53.928;27.662;2024-01-30T04:03:48;101208.69;;;-1.07;100.00
56912;BME280;42800;53.928;27.662;2024-01-30T04:06:14;101212.44;;;-0.97;100.00
56912;BME280;42800;53.928;27.662;2024-01-30T04:08:40;101203.31;;;-1.07;100.00
56912;BME280;42800;53.928;27.662;2024-01-30T04:11:06;101204.31;;;-0.85;100.00
56912;BME280;42800;53.928;27.662;2024-01-30T04:13:32;101211.84;;;-0.70;100.00
56912;BME280;42800;53.928;27.662;2024-01-30T04:15:59;101203.72;;;-0.87;100.00
56912;BME280;42800;53.928;27.662;2024-01-30T04:18:25;101204.66;;;-0.81;100.00
56912;BME280;42800;53.928;27.662;2024-01-30T04:20:52;101200.66;;;-0.50;100.00
56912;BME280;42800;53.928;27.662;2024-01-30T04:23:18;101196.91;;;-0.49;100.00
56912;BME280;42800;53.928;27.662;2024-01-30T04:25:44;101196.94;;;-0.61;100.00
56912;BME280;42800;53.928;27.662;2024-01-30T04:28:10;101186.13;;;-0.49;100.00
56912;BME280;42800;53.928;27.662;2024-01-30T04:30:37;101180.41;;;-0.53;100.00
56912;BME280;42800;53.928;27.662;2024-01-30T04:33:04;101173.44;;;-0.65;100.00
56912;BME280;42800;53.928;27.662;2024-01-30T04:35:30;101174.53;;;-0.78;100.00
56912;BME280;42800;53.928;27.662;2024-01-30T04:37:56;101185.13;;;-0.60;100.00
56912;BME280;42800;53.928;27.662;2024-01-30T04:40:23;101178.34;;;-0.91;100.00
56912;BME280;42800;53.928;27.662;2024-01-30T04:42:49;101184.31;;;-0.89;100.00
56912;BME280;42800;53.928;27.662;2024-01-30T04:45:15;101170.78;;;-1.06;100.00
56912;BME280;42800;53.928;27.662;2024-01-30T04:47:42;101186.94;;;-1.06;100.00
56912;BME280;42800;53.928;27.662;2024-01-30T04:50:08;101188.53;;;-0.93;100.00
56912;BME280;42800;53.928;27.662;2024-01-30T04:52:35;101189.63;;;-0.77;100.00
56912;BME280;42800;53.928;27.662;2024-01-30T04:55:02;101183.00;;;-0.58;100.00
56912;BME280;42800;53.928;27.662;2024-01-30T04:57:28;101182.41;;;-0.77;100.00
56912;BME280;42800;53.928;27.662;2024-01-30T04:59:54;101176.66;;;-1.09;100.00
56912;BME280;42800;53.928;27.662;2024-01-30T05:02:20;101175.84;;;-1.21;100.00
56912;BME280;42800;53.928;27.662;2024-01-30T05:04:46;101182.25;;;-1.10;100.00
56912;BME280;42800;53.928;27.662;2024-01-30T05:07:12;101180.94;;;-0.67;100.00
56912;BME280;42800;53.928;27.662;2024-01-30T05:09:39;101186.00;;;-0.42;100.00
56912;BME280;42800;53.928;27.662;2024-01-30T05:12:07;101175.31;;;-0.20;100.00
56912;BME280;42800;53.928;27.662;2024-01-30T05:14:33;101160.47;;;-0.06;100.00
56912;BME280;42800;53.928;27.662;2024-01-30T05:16:59;101122.69;;;0.11;100.00
56912;BME280;42800;53.928;27.662;2024-01-30T05:19:25;101069.97;;;0.03;100.00
56912;BME280;42800;53.928;27.662;2024-01-30T05:21:51;101024.13;;;0.03;100.00
56912;BME280;42800;53.928;27.662;2024-01-30T05:24:17;100986.06;;;-0.01;100.00
56912;BME280;42800;53.928;27.662;2024-01-30T05:26:43;100940.22;;;-0.01;100.00
56912;BME280;42800;53.928;27.662;2024-01-30T05:29:10;100925.66;;;0.22;100.00
56912;BME280;42800;53.928;27.662;2024-01-30T05:31:36;100854.88;;;0.10;100.00
56912;BME280;42800;53.928;27.662;2024-01-30T05:34:02;100807.69;;;0.13;100.00
56912;BME280;42800;53.928;27.662;2024-01-30T05:36:29;100756.53;;;0.18;100.00
56912;BME280;42800;53.928;27.662;2024-01-30T05:38:55;100726.56;;;0.14;100.00
56912;BME280;42800;53.928;27.662;2024-01-30T05:41:22;100712.28;;;0.19;100.00
56912;BME280;42800;53.928;27.662;2024-01-30T05:43:48;100691.81;;;0.23;100.00
56912;BME280;42800;53.928;27.662;2024-01-30T05:46:14;100655.41;;;0.20;100.00
56912;BME280;42800;53.928;27.662;2024-01-30T05:48:41;100634.13;;;0.24;100.00
56912;BME280;42800;53.928;27.662;2024-01-30T05:51:07;100652.41;;;0.17;100.00
56912;BME280;42800;53.928;27.662;2024-01-30T05:53:33;100626.56;;;0.26;100.00
56912;BME280;42800;53.928;27.662;2024-01-30T05:56:01;100590.97;;;0.24;100.00
56912;BME280;42800;53.928;27.662;2024-01-30T05:58:27;100567.97;;;0.16;100.00
56912;BME280;42800;53.928;27.662;2024-01-30T06:00:53;100570.91;;;0.10;100.00
56912;BME280;42800;53.928;27.662;2024-01-30T06:03:20;100549.50;;;-0.12;100.00
56912;BME280;42800;53.928;27.662;2024-01-30T06:05:47;100617.13;;;-0.14;100.00
56912;BME280;42800;53.928;27.662;2024-01-30T06:08:13;100629.84;;;-0.09;100.00
56912;BME280;42800;53.928;27.662;2024-01-30T06:10:39;100634.78;;;-0.33;100.00
56912;BME280;42800;53.928;27.662;2024-01-30T06:13:06;100674.00;;;-0.15;100.00
56912;BME280;42800;53.928;27.662;2024-01-30T06:15:32;100694.75;;;-0.16;100.00
56912;BME280;42800;53.928;27.662;2024-01-30T06:17:58;100678.38;;;-0.04;100.00
56912;BME280;42800;53.928;27.662;2024-01-30T06:20:25;100652.78;;;-0.07;100.00
56912;BME280;42800;53.928;27.662;2024-01-30T06:22:51;100644.97;;;-0.35;100.00
56912;BME280;42800;53.928;27.662;2024-01-30T06:25:18;100702.97;;;-0.01;100.00
56912;BME280;42800;53.928;27.662;2024-01-30T06:27:45;100682.44;;;-0.34;100.00
56912;BME280;42800;53.928;27.662;2024-01-30T06:30:12;100693.22;;;-0.07;100.00
56912;BME280;42800;53.928;27.662;2024-01-30T06:32:38;100693.09;;;0.10;100.00
56912;BME280;42800;53.928;27.662;2024-01-30T06:35:05;100631.50;;;-0.03;100.00
56912;BME280;42800;53.928;27.662;2024-01-30T06:37:32;100631.75;;;-0.05;100.00
56912;BME280;42800;53.928;27.662;2024-01-30T06:39:58;100617.03;;;0.13;100.00
56912;BME280;42800;53.928;27.662;2024-01-30T06:42:24;100595.63;;;-0.04;100.00
56912;BME280;42800;53.928;27.662;2024-01-30T06:44:50;100586.94;;;-0.16;100.00
56912;BME280;42800;53.928;27.662;2024-01-30T06:47:16;100579.19;;;-0.02;100.00
56912;BME280;42800;53.928;27.662;2024-01-30T06:49:42;100578.22;;;-0.28;100.00
56912;BME280;42800;53.928;27.662;2024-01-30T06:52:09;100597.88;;;-0.28;100.00
56912;BME280;42800;53.928;27.662;2024-01-30T06:54:36;100573.38;;;-0.26;100.00
56912;BME280;42800;53.928;27.662;2024-01-30T06:57:02;100564.41;;;0.06;100.00
56912;BME280;42800;53.928;27.662;2024-01-30T06:59:28;100473.53;;;0.01;100.00
56912;BME280;42800;53.928;27.662;2024-01-30T07:01:54;100458.31;;;0.42;100.00
56912;BME280;42800;53.928;27.662;2024-01-30T07:04:20;100366.31;;;0.90;100.00
56912;BME280;42800;53.928;27.662;2024-01-30T07:06:46;100188.47;;;1.33;100.00
56912;BME280;42800;53.928;27.662;2024-01-30T07:09:13;100017.34;;;1.48;100.00
56912;BME280;42800;53.928;27.662;2024-01-30T07:11:40;99915.47;;;1.48;100.00
56912;BME280;42800;53.928;27.662;2024-01-30T07:14:06;99847.28;;;1.56;100.00
56912;BME280;42800;53.928;27.662;2024-01-30T07:16:32;99821.59;;;1.35;100.00
56912;BME280;42800;53.928;27.662;2024-01-30T07:18:58;99800.28;;;1.33;100.00
56912;BME280;42800;53.928;27.662;2024-01-30T07:21:24;99779.69;;;1.99;100.00
56912;BME280;42800;53.928;27.662;2024-01-30T07:23:53;99777.50;;;2.01;100.00
56912;BME280;42800;53.928;27.662;2024-01-30T07:26:19;99778.97;;;2.78;100.00
56912;BME280;42800;53.928;27.662;2024-01-30T07:28:46;99825.66;;;2.70;100.00
56912;BME280;42800;53.928;27.662;2024-01-30T07:31:12;99806.78;;;2.51;100.00
56912;BME280;42800;53.928;27.662;2024-01-30T07:33:38;99851.69;;;2.52;100.00
56912;BME280;42800;53.928;27.662;2024-01-30T07:36:05;99887.50;;;3.14;100.00
56912;BME280;42800;53.928;27.662;2024-01-30T07:38:31;99937.81;;;3.34;100.00
56912;BME280;42800;53.928;27.662;2024-01-30T07:40:58;99967.66;;;3.48;100.00
56912;BME280;42800;53.928;27.662;2024-01-30T07:43:24;100013.53;;;3.77;100.00
56912;BME280;42800;53.928;27.662;2024-01-30T07:45:50;100042.41;;;4.28;100.00
56912;BME280;42800;53.928;27.662;2024-01-30T07:48:16;100106.97;;;4.59;100.00
56912;BME280;42800;53.928;27.662;2024-01-30T07:50:43;100161.13;;;4.22;100.00
56912;BME280;42800;53.928;27.662;2024-01-30T07:53:09;100168.44;;;4.96;100.00
56912;BME280;42800;53.928;27.662;2024-01-30T07:55:35;100204.28;;;4.84;100.00
56912;BME280;42800;53.928;27.662;2024-01-30T07:58:01;100205.78;;;5.04;100.00
56912;BME280;42800;53.928;27.662;2024-01-30T08:00:28;100239.91;;;5.38;100.00
56912;BME280;42800;53.928;27.662;2024-01-30T08:02:55;100247.16;;;5.15;100.00
56912;BME280;42800;53.928;27.662;2024-01-30T08:05:22;100246.31;;;5.56;100.00
56912;BME280;42800;53.928;27.662;2024-01-30T08:07:48;100245.75;;;5.04;100.00
56912;BME280;42800;53.928;27.662;2024-01-30T08:10:15;100256.09;;;4.74;100.00
56912;BME280;42800;53.928;27.662;2024-01-30T08:12:41;100247.03;;;5.48;100.00
56912;BME280;42800;53.928;27.662;2024-01-30T08:15:08;100274.84;;;5.45;100.00
56912;BME280;42800;53.928;27.662;2024-01-30T08:17:34;100269.53;;;6.48;100.00
56912;BME280;42800;53.928;27.662;2024-01-30T08:20:01;100319.72;;;6.70;100.00
56912;BME280;42800;53.928;27.662;2024-01-30T08:22:29;100329.31;;;6.67;100.00
56912;BME280;42800;53.928;27.662;2024-01-30T08:24:55;100325.94;;;6.48;100.00
56912;BME280;42800;53.928;27.662;2024-01-30T08:27:22;100327.06;;;6.47;100.00
56912;BME280;42800;53.928;27.662;2024-01-30T08:29:48;100315.44;;;6.19;100.00
56912;BME280;42800;53.928;27.662;2024-01-30T08:32:15;100311.41;;;5.38;100.00
56912;BME280;42800;53.928;27.662;2024-01-30T08:34:41;100272.31;;;5.62;100.00
56912;BME280;42800;53.928;27.662;2024-01-30T08:37:08;100291.56;;;5.38;100.00
56912;BME280;42800;53.928;27.662;2024-01-30T08:39:34;100270.41;;;5.07;100.00
56912;BME280;42800;53.928;27.662;2024-01-30T08:42:00;100263.38;;;5.34;100.00
56912;BME280;42800;53.928;27.662;2024-01-30T08:44:26;100273.34;;;6.02;100.00
56912;BME280;42800;53.928;27.662;2024-01-30T08:46:53;100277.72;;;5.76;100.00
56912;BME280;42800;53.928;27.662;2024-01-30T08:49:19;100291.47;;;6.21;100.00
56912;BME280;42800;53.928;27.662;2024-01-30T08:51:46;100270.56;;;5.80;100.00
56912;BME280;42800;53.928;27.662;2024-01-30T08:54:13;100288.88;;;5.88;100.00
56912;BME280;42800;53.928;27.662;2024-01-30T08:56:39;100259.50;;;4.80;100.00
56912;BME280;42800;53.928;27.662;2024-01-30T08:59:05;100253.81;;;4.48;100.00
56912;BME280;42800;53.928;27.662;2024-01-30T09:01:31;100208.25;;;4.59;100.00
56912;BME280;42800;53.928;27.662;2024-01-30T09:03:57;100176.59;;;4.22;100.00
56912;BME280;42800;53.928;27.662;2024-01-30T09:06:27;100159.38;;;4.59;100.00
56912;BME280;42800;53.928;27.662;2024-01-30T09:08:54;100146.31;;;4.01;100.00
56912;BME280;42800;53.928;27.662;2024-01-30T09:11:21;100095.38;;;3.27;100.00
56912;BME280;42800;53.928;27.662;2024-01-30T09:13:49;100066.28;;;3.52;100.00
56912;BME280;42800;53.928;27.662;2024-01-30T09:16:15;100072.09;;;3.78;100.00
56912;BME280;42800;53.928;27.662;2024-01-30T09:18:45;100065.34;;;3.75;100.00
56912;BME280;42800;53.928;27.662;2024-01-30T09:21:12;100040.75;;;3.53;100.00
56912;BME280;42800;53.928;27.662;2024-01-30T09:23:41;100027.78;;;3.17;100.00
56912;BME280;42800;53.928;27.662;2024-01-30T09:26:10;99982.28;;;3.00;100.00
56912;BME280;42800;53.928;27.662;2024-01-30T09:28:46;99961.78;;;2.94;100.00
56912;BME280;42800;53.928;27.662;2024-01-30T09:31:16;99909.53;;;2.56;100.00
56912;BME280;42800;53.928;27.662;2024-01-30T09:33:47;99873.91;;;2.68;100.00
56912;BME280;42800;53.928;27.662;2024-01-30T09:36:18;99857.56;;;2.73;100.00
56912;BME280;42800;53.928;27.662;2024-01-30T09:38:47;99874.06;;;2.39;100.00
56912;BME280;42800;53.928;27.662;2024-01-30T09:41:13;99880.34;;;2.53;100.00
56912;BME280;42800;53.928;27.662;2024-01-30T09:43:42;99870.94;;;2.31;100.00
56912;BME280;42800;53.928;27.662;2024-01-30T09:46:12;99838.66;;;2.54;100.00
56912;BME280;42800;53.928;27.662;2024-01-30T09:48:41;99837.97;;;2.62;100.00
56912;BME280;42800;53.928;27.662;2024-01-30T09:51:08;99826.94;;;2.40;100.00
56912;BME280;42800;53.928;27.662;2024-01-30T09:53:36;99823.84;;;2.65;100.00
56912;BME280;42800;53.928;27.662;2024-01-30T09:56:03;99826.50;;;2.70;100.00
56912;BME280;42800;53.928;27.662;2024-01-30T09:58:30;99825.50;;;2.47;100.00
56912;BME280;42800;53.928;27.662;2024-01-30T10:00:56;99809.13;;;2.71;100.00
56912;BME280;42800;53.928;27.662;2024-01-30T10:03:23;99827.75;;;3.05;100.00
56912;BME280;42800;53.928;27.662;2024-01-30T10:05:51;99854.66;;;3.16;100.00
56912;BME280;42800;53.928;27.662;2024-01-30T10:08:18;99879.78;;;3.21;100.00
56912;BME280;42800;53.928;27.662;2024-01-30T10:10:46;99886.78;;;3.22;100.00
56912;BME280;42800;53.928;27.662;2024-01-30T10:13:12;99883.06;;;3.18;100.00
56912;BME280;42800;53.928;27.662;2024-01-30T10:15:39;99889.56;;;3.50;100.00
56912;BME280;42800;53.928;27.662;2024-01-30T10:18:06;99922.94;;;3.32;100.00
56912;BME280;42800;53.928;27.662;2024-01-30T10:20:34;99928.19;;;3.42;100.00
56912;BME280;42800;53.928;27.662;2024-01-30T10:23:00;99924.44;;;3.70;100.00
56912;BME280;42800;53.928;27.662;2024-01-30T10:25:27;99931.56;;;3.80;100.00
56912;BME280;42800;53.928;27.662;2024-01-30T10:27:53;99958.78;;;3.89;100.00
56912;BME280;42800;53.928;27.662;2024-01-30T10:30:20;99963.03;;;4.59;100.00
56912;BME280;42800;53.928;27.662;2024-01-30T10:32:47;99995.75;;;4.26;100.00
56912;BME280;42800;53.928;27.662;2024-01-30T10:35:13;99983.53;;;3.54;100.00
56912;BME280;42800;53.928;27.662;2024-01-30T10:37:43;99952.81;;;3.73;100.00
56912;BME280;42800;53.928;27.662;2024-01-30T10:40:13;99946.59;;;3.72;100.00
56912;BME280;42800;53.928;27.662;2024-01-30T10:42:43;99940.09;;;4.01;100.00
56912;BME280;42800;53.928;27.662;2024-01-30T10:45:11;99964.31;;;3.70;100.00
56912;BME280;42800;53.928;27.662;2024-01-30T10:47:40;99960.56;;;3.80;100.00
56912;BME280;42800;53.928;27.662;2024-01-30T10:50:08;99980.00;;;4.14;100.00
56912;BME280;42800;53.928;27.662;2024-01-30T10:52:36;99993.84;;;4.54;100.00
56912;BME280;42800;53.928;27.662;2024-01-30T10:55:04;99999.19;;;4.82;100.00
56912;BME280;42800;53.928;27.662;2024-01-30T10:57:34;100035.91;;;4.79;100.00
56912;BME280;42800;53.928;27.662;2024-01-30T11:00:02;100031.84;;;4.54;100.00
56912;BME280;42800;53.928;27.662;2024-01-30T11:02:31;100074.31;;;5.14;100.00
56912;BME280;42800;53.928;27.662;2024-01-30T11:04:59;100111.59;;;4.86;100.00
56912;BME280;42800;53.928;27.662;2024-01-30T11:07:27;100105.13;;;4.95;100.00
56912;BME280;42800;53.928;27.662;2024-01-30T11:09:59;100131.16;;;5.24;100.00
56912;BME280;42800;53.928;27.662;2024-01-30T11:12:28;100115.50;;;5.43;100.00
56912;BME280;42800;53.928;27.662;2024-01-30T11:15:05;100121.22;;;5.06;100.00
56912;BME280;42800;53.928;27.662;2024-01-30T11:17:42;100102.13;;;4.56;100.00
56912;BME280;42800;53.928;27.662;2024-01-30T11:20:14;100059.22;;;4.30;100.00
56912;BME280;42800;53.928;27.662;2024-01-30T11:22:42;100045.63;;;4.58;100.00
56912;BME280;42800;53.928;27.662;2024-01-30T11:25:13;100052.16;;;4.57;100.00
56912;BME280;42800;53.928;27.662;2024-01-30T11:27:42;100055.38;;;4.45;100.00
56912;BME280;42800;53.928;27.662;2024-01-30T11:30:09;100055.44;;;4.81;100.00
56912;BME280;42800;53.928;27.662;2024-01-30T11:32:35;100053.16;;;4.61;100.00
56912;BME280;42800;53.928;27.662;2024-01-30T11:35:03;100046.41;;;4.72;100.00
56912;BME280;42800;53.928;27.662;2024-01-30T11:37:31;100040.22;;;4.94;100.00
56912;BME280;42800;53.928;27.662;2024-01-30T11:39:58;100042.31;;;4.47;100.00
56912;BME280;42800;53.928;27.662;2024-01-30T11:42:26;100015.59;;;4.27;100.00
56912;BME280;42800;53.928;27.662;2024-01-30T11:44:53;100009.22;;;4.31;100.00
56912;BME280;42800;53.928;27.662;2024-01-30T11:47:20;100007.13;;;4.28;100.00
56912;BME280;42800;53.928;27.662;2024-01-30T11:49:46;99993.03;;;4.26;100.00
56912;BME280;42800;53.928;27.662;2024-01-30T11:52:13;99998.88;;;3.92;100.00
56912;BME280;42800;53.928;27.662;2024-01-30T11:54:40;99921.19;;;3.82;100.00
56912;BME280;42800;53.928;27.662;2024-01-30T11:57:06;99920.31;;;3.87;100.00
56912;BME280;42800;53.928;27.662;2024-01-30T11:59:33;99937.59;;;3.91;100.00
56912;BME280;42800;53.928;27.662;2024-01-30T12:02:00;99914.44;;;3.38;100.00
56912;BME280;42800;53.928;27.662;2024-01-30T12:04:28;99849.50;;;3.61;100.00
56912;BME280;42800;53.928;27.662;2024-01-30T12:06:55;99851.41;;;3.74;100.00
56912;BME280;42800;53.928;27.662;2024-01-30T12:09:21;99853.47;;;3.08;100.00
56912;BME280;42800;53.928;27.662;2024-01-30T12:11:48;99823.78;;;2.70;100.00
56912;BME280;42800;53.928;27.662;2024-01-30T12:14:16;99745.00;;;3.41;100.00
56912;BME280;42800;53.928;27.662;2024-01-30T12:16:43;99785.13;;;3.11;100.00
56912;BME280;42800;53.928;27.662;2024-01-30T12:19:10;99764.44;;;2.88;100.00
56912;BME280;42800;53.928;27.662;2024-01-30T12:21:38;99752.81;;;3.01;100.00
56912;BME280;42800;53.928;27.662;2024-01-30T12:24:05;99760.41;;;2.71;100.00
56912;BME280;42800;53.928;27.662;2024-01-30T12:26:32;99761.94;;;3.19;100.00
56912;BME280;42800;53.928;27.662;2024-01-30T12:28:59;99748.56;;;2.67;100.00
56912;BME280;42800;53.928;27.662;2024-01-30T12:31:27;99728.31;;;2.65;100.00
56912;BME280;42800;53.928;27.662;2024-01-30T12:33:54;99709.56;;;2.82;100.00
56912;BME280;42800;53.928;27.662;2024-01-30T12:36:22;99685.78;;;2.65;100.00